Time;durP1;ratioP1;P1;durP2;ratioP2;P2;SDS_P1;SDS_P2;PMS_P1;PMS_P2;Temp;Humidity;BMP_temperature;BMP_pressure;BME280_temperature;BME280_humidity;BME280_pressure;Samples;Min_cycle;Max_cycle;Signal;HPM_P1;HPM_P2
2023/11/25 00:03:43;;;;;;;1.03;0.93;;;6.20;43.00;;;;;;10263077;28;20239;-75
2023/11/25 00:08:46;;;;;;;1.63;1.10;;;6.20;43.30;;;;;;10263513;28;20238;-75
2023/11/25 00:13:49;;;;;;;1.63;1.30;;;6.20;43.20;;;;;;10258585;28;20819;-75
2023/11/25 00:18:54;;;;;;;1.30;0.93;;;6.10;43.40;;;;;;10256681;28;20231;-75
2023/11/25 00:23:57;;;;;;;2.77;1.20;;;6.10;43.60;;;;;;10259442;28;20224;-74
2023/11/25 00:29:00;;;;;;;1.10;1.00;;;6.10;43.60;;;;;;10261846;28;20228;-76
2023/11/25 00:34:05;;;;;;;1.33;1.00;;;6.10;43.60;;;;;;10261648;28;20223;-76
2023/11/25 00:39:08;;;;;;;1.53;1.10;;;6.00;43.60;;;;;;10273877;28;20670;-76
2023/11/25 00:44:11;;;;;;;1.43;1.10;;;6.00;43.50;;;;;;10268685;28;20223;-76
2023/11/25 00:49:16;;;;;;;1.17;1.07;;;6.00;43.60;;;;;;10266569;28;20326;-76
2023/11/25 00:54:19;;;;;;;1.93;1.30;;;5.90;43.70;;;;;;10266833;28;20235;-77
2023/11/25 00:59:22;;;;;;;1.70;1.10;;;5.90;43.60;;;;;;10263339;28;20742;-77
2023/11/25 01:04:26;;;;;;;1.53;1.10;;;5.90;43.70;;;;;;10269337;28;20239;-77
2023/11/25 01:09:30;;;;;;;2.90;1.00;;;5.80;43.90;;;;;;10265434;28;20777;-77
2023/11/25 01:14:34;;;;;;;1.60;1.10;;;5.80;44.20;;;;;;10271080;28;20987;-76
2023/11/25 01:19:38;;;;;;;0.90;0.90;;;5.70;44.00;;;;;;10272658;28;20965;-76
2023/11/25 01:24:42;;;;;;;1.17;0.83;;;5.60;44.20;;;;;;10269526;28;20231;-76
2023/11/25 01:29:45;;;;;;;2.17;0.83;;;5.60;43.90;;;;;;10269445;28;20354;-76
2023/11/25 01:34:50;;;;;;;1.67;0.80;;;5.50;44.00;;;;;;10274810;28;20241;-76
2023/11/25 01:39:53;;;;;;;0.63;0.60;;;5.50;43.60;;;;;;10269625;28;20230;-76
2023/11/25 01:44:57;;;;;;;0.67;0.67;;;5.50;43.30;;;;;;10276839;28;20603;-76
2023/11/25 01:50:05;;;;;;;1.03;0.80;;;5.60;43.50;;;;;;10279091;28;20227;-76
2023/11/25 01:55:09;;;;;;;0.87;0.80;;;5.60;43.20;;;;;;10282848;28;20891;-76
2023/11/25 02:00:15;;;;;;;1.40;0.80;;;5.60;42.90;;;;;;10271682;28;20222;-76
2023/11/25 02:05:19;;;;;;;0.53;0.53;;;5.60;42.70;;;;;;10284139;28;20227;-76
2023/11/25 02:10:24;;;;;;;0.83;0.80;;;5.50;42.40;;;;;;10280033;28;20299;-77
2023/11/25 02:15:28;;;;;;;0.70;0.60;;;5.50;42.50;;;;;;10275250;28;20239;-77
2023/11/25 02:20:35;;;;;;;2.23;0.73;;;5.50;42.00;;;;;;10272798;28;20242;-77
2023/11/25 02:25:39;;;;;;;0.80;0.70;;;5.50;41.70;;;;;;10261265;28;20236;-76
2023/11/25 02:30:43;;;;;;;1.10;0.80;;;5.50;41.30;;;;;;10273837;28;20723;-77
2023/11/25 02:35:47;;;;;;;1.43;0.90;;;5.50;41.40;;;;;;10270360;28;20236;-77
2023/11/25 02:40:53;;;;;;;1.00;0.70;;;5.50;41.30;;;;;;10272849;28;20223;-77
2023/11/25 02:45:57;;;;;;;2.10;0.90;;;5.50;41.00;;;;;;10276447;28;20234;-77
2023/11/25 02:51:01;;;;;;;1.57;0.90;;;5.50;40.80;;;;;;10275824;28;20276;-77
2023/11/25 02:56:06;;;;;;;1.03;0.70;;;5.50;40.70;;;;;;10267501;28;20315;-77
2023/11/25 03:01:13;;;;;;;1.37;0.80;;;5.50;40.30;;;;;;10279476;28;21020;-77
2023/11/25 03:06:21;;;;;;;0.70;0.60;;;5.50;40.40;;;;;;10267974;28;20647;-77
2023/11/25 03:11:28;;;;;;;0.67;0.60;;;5.40;40.10;;;;;;10273440;28;20237;-76
2023/11/25 03:16:33;;;;;;;1.23;0.60;;;5.40;40.10;;;;;;10274606;28;20246;-76
2023/11/25 03:21:37;;;;;;;0.67;0.67;;;5.40;40.30;;;;;;10274758;28;20227;-77
2023/11/25 03:26:43;;;;;;;0.70;0.60;;;5.40;40.20;;;;;;10274381;28;20232;-76
2023/11/25 03:31:46;;;;;;;0.97;0.77;;;5.40;40.00;;;;;;10269575;28;20267;-77
2023/11/25 03:36:50;;;;;;;2.40;0.80;;;5.40;39.90;;;;;;10270043;28;20705;-76
2023/11/25 03:41:54;;;;;;;2.07;0.83;;;5.40;39.80;;;;;;10274827;28;20269;-76
2023/11/25 03:46:57;;;;;;;1.13;0.80;;;5.40;40.10;;;;;;10274206;28;20241;-76
2023/11/25 03:52:01;;;;;;;1.37;0.67;;;5.40;39.50;;;;;;10270074;28;20703;-76
2023/11/25 03:57:06;;;;;;;1.50;0.70;;;5.40;40.30;;;;;;10272291;28;20231;-77
2023/11/25 04:02:10;;;;;;;1.53;0.80;;;5.40;39.80;;;;;;10277498;28;20238;-77
2023/11/25 04:07:13;;;;;;;0.87;0.63;;;5.40;39.90;;;;;;10273031;28;20227;-77
2023/11/25 04:12:17;;;;;;;2.60;0.90;;;5.40;39.90;;;;;;10272628;28;20313;-77
2023/11/25 04:17:21;;;;;;;2.57;0.80;;;5.50;39.30;;;;;;10268274;28;20224;-77
2023/11/25 04:22:24;;;;;;;1.07;0.80;;;5.40;39.10;;;;;;10273460;28;20231;-77
2023/11/25 04:27:29;;;;;;;2.00;0.80;;;5.40;39.50;;;;;;10268260;28;20246;-77
2023/11/25 04:32:33;;;;;;;0.63;0.60;;;5.40;39.40;;;;;;10274005;28;20259;-77
2023/11/25 04:37:37;;;;;;;3.07;0.90;;;5.40;39.70;;;;;;10272383;28;20262;-76
2023/11/25 04:42:43;;;;;;;1.17;0.70;;;5.40;39.60;;;;;;10270313;28;20235;-77
2023/11/25 04:47:48;;;;;;;1.53;0.80;;;5.40;39.30;;;;;;10267954;28;20861;-77
2023/11/25 04:52:51;;;;;;;1.93;0.90;;;5.40;38.90;;;;;;10269881;28;20298;-76
2023/11/25 04:57:56;;;;;;;3.10;0.90;;;5.40;39.10;;;;;;10274025;28;21011;-77
2023/11/25 05:02:59;;;;;;;1.40;0.90;;;5.40;39.50;;;;;;10275277;28;20772;-77
2023/11/25 05:08:04;;;;;;;3.83;1.00;;;5.40;39.40;;;;;;10268055;28;20239;-77
2023/11/25 05:13:09;;;;;;;2.67;0.90;;;5.40;39.10;;;;;;10257637;28;20240;-77
2023/11/25 05:18:13;;;;;;;1.23;0.87;;;5.40;39.40;;;;;;10265738;28;20285;-77
2023/11/25 05:23:16;;;;;;;1.27;0.80;;;5.40;39.10;;;;;;10269109;28;20311;-77
2023/11/25 05:28:21;;;;;;;1.63;0.83;;;5.40;39.00;;;;;;10269783;28;20254;-77
2023/11/25 05:33:25;;;;;;;2.07;0.80;;;5.30;39.00;;;;;;10273379;28;20256;-77
2023/11/25 05:38:29;;;;;;;0.87;0.80;;;5.30;38.90;;;;;;10270329;28;20306;-78
2023/11/25 05:43:33;;;;;;;1.33;0.87;;;5.30;38.90;;;;;;10275978;28;20331;-78
2023/11/25 05:48:36;;;;;;;2.40;0.97;;;5.30;38.70;;;;;;10278742;28;20235;-77
2023/11/25 05:53:40;;;;;;;2.37;1.13;;;5.20;38.40;;;;;;10276950;28;20239;-77
2023/11/25 05:58:44;;;;;;;1.50;1.00;;;5.10;37.80;;;;;;10286085;28;20232;-77
2023/11/25 06:03:50;;;;;;;1.63;0.90;;;5.10;38.30;;;;;;10281036;28;20240;-77
2023/11/25 06:08:54;;;;;;;3.50;0.90;;;5.00;38.40;;;;;;10288209;28;20269;-77
2023/11/25 06:13:58;;;;;;;3.13;0.87;;;5.00;38.50;;;;;;10277724;28;20242;-78
2023/11/25 06:19:03;;;;;;;2.07;0.90;;;5.00;38.70;;;;;;10286576;28;20454;-78
2023/11/25 06:24:07;;;;;;;1.97;0.90;;;5.00;38.40;;;;;;10277481;28;20614;-79
2023/11/25 06:29:12;;;;;;;1.97;0.80;;;4.90;38.50;;;;;;10283738;28;20241;-78
2023/11/25 06:34:15;;;;;;;1.97;1.00;;;4.90;38.40;;;;;;10280628;28;20244;-78
2023/11/25 06:39:22;;;;;;;2.77;1.03;;;4.90;38.60;;;;;;10263045;28;20346;-78
2023/11/25 06:44:27;;;;;;;1.20;1.10;;;4.90;38.70;;;;;;10281290;28;20652;-78
2023/11/25 06:49:30;;;;;;;1.83;0.90;;;4.80;38.70;;;;;;10270939;28;20235;-78
2023/11/25 06:54:34;;;;;;;1.53;1.00;;;4.80;38.20;;;;;;10261960;28;20259;-78
2023/11/25 06:59:44;;;;;;;2.80;1.07;;;4.70;38.70;;;;;;10266316;28;20326;-77
2023/11/25 07:04:48;;;;;;;1.80;1.10;;;4.70;38.40;;;;;;10270042;28;20250;-76
2023/11/25 07:09:52;;;;;;;1.60;0.90;;;4.70;38.70;;;;;;10277768;28;20231;-76
2023/11/25 07:14:58;;;;;;;3.43;1.27;;;4.70;38.90;;;;;;10259868;28;20231;-77
2023/11/25 07:20:02;;;;;;;1.90;1.20;;;4.70;39.30;;;;;;10257716;28;20232;-77
2023/11/25 07:25:06;;;;;;;1.57;1.03;;;4.70;39.20;;;;;;10266123;28;20231;-78
2023/11/25 07:30:12;;;;;;;1.73;1.00;;;4.70;39.50;;;;;;10259595;28;20757;-78
2023/11/25 07:35:15;;;;;;;5.43;1.40;;;4.80;39.40;;;;;;10256382;28;20710;-78
2023/11/25 07:40:19;;;;;;;3.53;1.20;;;4.80;39.40;;;;;;10252923;28;20223;-78
2023/11/25 07:45:25;;;;;;;2.03;1.17;;;4.90;39.10;;;;;;10266554;28;20261;-78
2023/11/25 07:50:29;;;;;;;1.20;1.00;;;4.90;39.00;;;;;;10271277;28;20232;-79
2023/11/25 07:55:32;;;;;;;2.77;1.20;;;4.90;39.60;;;;;;10272769;28;20294;-78
2023/11/25 08:00:38;;;;;;;2.00;0.97;;;5.00;39.30;;;;;;10271955;28;20286;-78
2023/11/25 08:05:41;;;;;;;1.37;1.00;;;5.00;39.10;;;;;;10275658;28;20226;-79
2023/11/25 08:10:44;;;;;;;1.50;1.30;;;5.00;39.00;;;;;;10266808;28;20227;-78
2023/11/25 08:15:49;;;;;;;3.13;1.30;;;5.10;39.40;;;;;;10270338;28;20313;-78
2023/11/25 08:20:52;;;;;;;2.13;1.40;;;5.10;39.00;;;;;;10278708;28;20422;-79
2023/11/25 08:25:55;;;;;;;2.10;1.23;;;5.20;39.10;;;;;;10282965;28;20724;-78
2023/11/25 08:31:00;;;;;;;4.20;2.07;;;5.20;39.00;;;;;;10279019;28;20232;-78
2023/11/25 08:36:04;;;;;;;2.60;1.20;;;5.20;39.30;;;;;;10279308;28;20255;-78
2023/11/25 08:41:08;;;;;;;2.97;1.20;;;5.20;39.10;;;;;;10268583;28;20232;-79
2023/11/25 08:46:13;;;;;;;4.47;1.40;;;5.20;39.40;;;;;;10277648;28;20231;-78
2023/11/25 08:51:16;;;;;;;2.37;1.10;;;5.30;39.30;;;;;;10276985;28;20311;-78
2023/11/25 08:56:20;;;;;;;1.70;1.10;;;5.30;39.30;;;;;;10271039;28;20805;-78
2023/11/25 09:01:26;;;;;;;3.20;1.40;;;5.30;39.30;;;;;;10277933;28;21021;-78
2023/11/25 09:06:31;;;;;;;3.17;1.23;;;5.40;39.40;;;;;;10264132;28;20231;-76
2023/11/25 09:11:34;;;;;;;4.00;1.60;;;5.40;39.60;;;;;;10255605;28;20232;-77
2023/11/25 09:16:39;;;;;;;3.80;1.30;;;5.40;39.50;;;;;;10255002;28;20227;-78
2023/11/25 09:21:44;;;;;;;2.83;1.27;;;5.50;39.60;;;;;;10250618;28;20227;-77
2023/11/25 09:26:48;;;;;;;2.73;1.40;;;5.50;39.50;;;;;;10259168;28;20258;-73
2023/11/25 09:31:52;;;;;;;3.43;1.57;;;5.60;40.00;;;;;;10244993;28;20247;-76
2023/11/25 09:36:56;;;;;;;4.40;1.50;;;5.70;39.80;;;;;;10277198;28;20227;-74
2023/11/25 09:42:00;;;;;;;3.53;1.20;;;5.80;40.00;;;;;;10279356;28;20722;-77
2023/11/25 09:47:05;;;;;;;4.37;1.40;;;5.90;39.90;;;;;;10288850;28;20856;-76
2023/11/25 09:52:10;;;;;;;3.63;1.50;;;6.00;39.40;;;;;;10278772;28;20242;-77
2023/11/25 09:57:18;;;;;;;4.67;1.73;;;6.00;39.60;;;;;;10281530;28;20239;-72
2023/11/25 10:02:23;;;;;;;2.57;1.40;;;6.00;39.50;;;;;;10286188;28;20787;-74
2023/11/25 10:07:27;;;;;;;3.67;1.73;;;6.00;39.90;;;;;;10284989;28;20223;-75
2023/11/25 10:12:31;;;;;;;2.40;1.40;;;6.00;39.80;;;;;;10284673;28;20231;-74
2023/11/25 10:17:36;;;;;;;2.73;1.43;;;6.00;39.30;;;;;;10285851;28;20286;-74
2023/11/25 10:22:47;;;;;;;3.80;1.50;;;6.00;39.40;;;;;;10286136;28;20236;-73
2023/11/25 10:27:52;;;;;;;4.83;1.80;;;5.90;39.20;;;;;;10286389;28;20232;-73
2023/11/25 10:33:00;;;;;;;4.43;1.77;;;5.90;39.40;;;;;;10286107;28;20328;-74
2023/11/25 10:38:06;;;;;;;5.33;1.40;;;5.90;39.80;;;;;;10285669;28;20228;-74
2023/11/25 10:43:09;;;;;;;4.50;1.60;;;6.00;40.40;;;;;;10285756;28;20251;-73
2023/11/25 10:48:15;;;;;;;4.00;1.83;;;6.00;39.80;;;;;;10285350;28;20231;-74
2023/11/25 10:53:21;;;;;;;3.07;2.03;;;6.10;40.00;;;;;;10280530;28;20323;-74
2023/11/25 10:58:26;;;;;;;6.07;2.00;;;6.10;40.60;;;;;;10286237;28;20302;-75
2023/11/25 11:03:54;;;;;;;4.63;2.10;;;6.20;40.00;;;;;;10287767;28;20319;-74
2023/11/25 11:09:04;;;;;;;3.13;1.90;;;6.20;40.00;;;;;;10285821;28;21035;-74
2023/11/25 11:14:12;;;;;;;14.47;9.03;;;6.20;39.80;;;;;;10282990;28;20263;-75
2023/11/25 11:19:21;;;;;;;5.17;2.83;;;6.20;40.20;;;;;;10279865;28;20231;-75
2023/11/25 11:24:34;;;;;;;4.63;2.10;;;6.30;39.80;;;;;;10286128;28;20250;-75
2023/11/25 11:29:44;;;;;;;4.47;2.17;;;6.30;39.70;;;;;;10285112;28;20238;-75
2023/11/25 11:34:49;;;;;;;5.17;2.20;;;6.30;39.80;;;;;;10284735;28;20242;-75
2023/11/25 11:40:02;;;;;;;4.30;2.10;;;6.30;39.80;;;;;;10283467;28;20255;-74
2023/11/25 11:45:21;;;;;;;4.20;2.40;;;6.30;39.80;;;;;;10284996;28;20235;-73
2023/11/25 11:50:29;;;;;;;3.07;2.10;;;6.30;40.00;;;;;;10285174;28;20238;-74
2023/11/25 11:55:38;;;;;;;3.30;2.07;;;6.40;40.40;;;;;;10285170;28;20255;-74
2023/11/25 12:00:49;;;;;;;6.90;2.50;;;6.40;40.30;;;;;;10283940;28;20287;-74
2023/11/25 12:05:54;;;;;;;4.00;2.10;;;6.40;40.40;;;;;;10285052;28;20231;-74
2023/11/25 12:10:58;;;;;;;3.03;2.10;;;6.40;40.50;;;;;;10284315;28;20305;-74
2023/11/25 12:16:03;;;;;;;3.47;2.43;;;6.50;40.40;;;;;;10284078;28;20343;-74
2023/11/25 12:21:09;;;;;;;3.80;2.20;;;6.50;40.30;;;;;;10284019;28;20235;-75
2023/11/25 12:26:12;;;;;;;3.17;2.10;;;6.50;40.30;;;;;;10283987;28;20676;-74
2023/11/25 12:31:16;;;;;;;4.13;2.90;;;6.60;40.50;;;;;;10280192;28;20231;-74
2023/11/25 12:36:22;;;;;;;3.40;2.10;;;6.60;40.40;;;;;;10270081;28;20318;-74
2023/11/25 12:41:25;;;;;;;3.37;1.93;;;6.60;40.40;;;;;;10284889;28;20227;-75
2023/11/25 12:46:28;;;;;;;4.40;2.20;;;6.70;40.40;;;;;;10274983;28;20239;-74
2023/11/25 12:51:43;;;;;;;2.80;1.80;;;6.80;40.40;;;;;;10290594;28;20711;-74
2023/11/25 12:56:52;;;;;;;3.83;2.20;;;6.80;39.70;;;;;;10283530;28;20230;-74
2023/11/25 13:01:55;;;;;;;5.30;2.20;;;6.80;40.00;;;;;;10281386;28;20843;-74
2023/11/25 13:07:02;;;;;;;3.63;2.23;;;6.90;40.10;;;;;;10294457;28;20259;-74
2023/11/25 13:12:06;;;;;;;2.93;1.90;;;6.80;40.10;;;;;;10283195;28;20240;-73
2023/11/25 13:17:10;;;;;;;4.93;3.00;;;6.80;40.20;;;;;;10268442;28;20340;-74
2023/11/25 13:22:16;;;;;;;4.17;2.50;;;6.80;40.20;;;;;;10284246;28;20274;-73
2023/11/25 13:27:19;;;;;;;3.37;2.10;;;6.80;40.10;;;;;;10285307;28;20236;-74
2023/11/25 13:32:23;;;;;;;5.33;2.00;;;6.80;40.20;;;;;;10284998;28;20786;-74
2023/11/25 13:37:28;;;;;;;5.27;1.70;;;6.80;40.40;;;;;;10310146;28;20290;-74
2023/11/25 13:42:31;;;;;;;2.87;1.67;;;6.80;40.50;;;;;;10311529;28;20768;-75
2023/11/25 13:47:35;;;;;;;3.83;1.93;;;6.70;40.60;;;;;;10310249;28;20271;-74
2023/11/25 13:52:40;;;;;;;3.60;2.13;;;6.50;40.70;;;;;;10287187;28;20726;-74
2023/11/25 13:57:44;;;;;;;5.33;2.30;;;6.40;41.10;;;;;;10297808;28;20251;-74
2023/11/25 14:02:47;;;;;;;4.87;4.43;;;6.40;41.10;;;;;;10297197;28;20792;-73
2023/11/25 14:07:53;;;;;;;4.90;3.03;;;6.30;41.30;;;;;;10286956;28;20306;-73
2023/11/25 14:12:56;;;;;;;3.60;2.70;;;6.30;41.40;;;;;;10286854;28;20245;-74
2023/11/25 14:18:00;;;;;;;8.47;6.00;;;6.20;41.50;;;;;;10286784;28;20232;-73
2023/11/25 14:23:05;;;;;;;6.23;3.10;;;6.10;41.60;;;;;;10269575;28;20725;-73
2023/11/25 14:28:09;;;;;;;5.17;3.00;;;6.10;41.90;;;;;;10278885;28;20235;-73
2023/11/25 14:33:12;;;;;;;5.07;2.83;;;6.00;41.90;;;;;;10286442;28;20263;-73
2023/11/25 14:38:17;;;;;;;6.17;2.40;;;6.00;42.00;;;;;;10285806;28;20238;-74
2023/11/25 14:43:20;;;;;;;7.60;2.00;;;6.00;42.30;;;;;;10285200;28;20844;-74
2023/11/25 14:48:23;;;;;;;3.73;2.37;;;6.00;42.30;;;;;;10292210;28;20219;-76
2023/11/25 14:53:28;;;;;;;5.47;3.37;;;6.00;42.30;;;;;;10279822;28;20237;-76
2023/11/25 14:58:32;;;;;;;4.93;3.43;;;6.00;42.50;;;;;;10276163;28;20234;-75
2023/11/25 15:03:38;;;;;;;6.97;4.47;;;6.00;42.40;;;;;;10269982;28;20231;-75
2023/11/25 15:08:50;;;;;;;9.00;3.40;;;6.00;42.70;;;;;;10287614;28;20235;-76
2023/11/25 15:13:53;;;;;;;4.23;2.30;;;6.00;43.10;;;;;;10287614;28;20315;-75
2023/11/25 15:19:02;;;;;;;12.47;5.93;;;6.00;42.50;;;;;;10287929;28;20238;-75
2023/11/25 15:24:09;;;;;;;11.63;4.93;;;6.00;43.00;;;;;;10288288;28;20224;-76
2023/11/25 15:29:13;;;;;;;5.40;3.00;;;6.00;43.00;;;;;;10288098;28;20239;-77
2023/11/25 15:34:17;;;;;;;5.43;3.20;;;6.00;42.70;;;;;;10278509;28;20243;-76
2023/11/25 15:39:26;;;;;;;5.03;2.97;;;6.00;42.80;;;;;;10287118;28;20251;-76
2023/11/25 15:44:31;;;;;;;3.33;2.03;;;6.00;43.00;;;;;;10283379;28;20318;-75
2023/11/25 15:49:35;;;;;;;2.77;1.70;;;6.00;43.00;;;;;;10285211;28;20246;-75
2023/11/25 15:54:40;;;;;;;3.67;1.87;;;6.10;43.00;;;;;;10284918;28;20254;-75
2023/11/25 15:59:43;;;;;;;3.80;1.50;;;6.10;43.00;;;;;;10285110;28;20240;-75
2023/11/25 16:04:48;;;;;;;2.77;1.70;;;6.10;42.80;;;;;;10283644;28;20322;-76
2023/11/25 16:09:52;;;;;;;4.90;2.07;;;6.00;43.10;;;;;;10283235;28;20232;-76
2023/11/25 16:14:56;;;;;;;5.93;2.77;;;6.10;43.20;;;;;;10283165;28;20239;-75
2023/11/25 16:20:00;;;;;;;2.90;1.50;;;6.10;43.00;;;;;;10283823;28;20231;-74
2023/11/25 16:25:06;;;;;;;1.40;1.30;;;6.10;43.20;;;;;;10288847;28;20242;-76
2023/11/25 16:30:14;;;;;;;3.40;2.00;;;6.10;43.60;;;;;;10264015;28;20228;-74
2023/11/25 16:35:20;;;;;;;2.93;1.20;;;6.10;43.40;;;;;;10277263;28;20913;-75
2023/11/25 16:40:25;;;;;;;2.00;1.50;;;6.10;43.00;;;;;;10280712;28;20732;-75
2023/11/25 16:45:30;;;;;;;5.37;1.23;;;6.10;43.30;;;;;;10281735;28;20231;-76
2023/11/25 16:50:37;;;;;;;2.43;1.70;;;6.10;43.20;;;;;;10285593;28;20251;-76
2023/11/25 16:55:43;;;;;;;4.10;3.00;;;6.10;43.20;;;;;;10280315;28;20312;-75
2023/11/25 17:00:46;;;;;;;2.77;1.97;;;6.00;43.50;;;;;;10293570;28;20267;-75
2023/11/25 17:05:50;;;;;;;3.07;2.13;;;6.00;43.40;;;;;;10284936;28;20228;-75
2023/11/25 17:10:54;;;;;;;3.20;2.33;;;6.00;43.20;;;;;;10280659;28;20278;-75
2023/11/25 17:15:57;;;;;;;2.47;1.83;;;6.00;43.50;;;;;;10276930;28;20239;-77
2023/11/25 17:21:01;;;;;;;3.57;2.53;;;6.00;43.50;;;;;;10282732;28;20283;-74
2023/11/25 17:26:07;;;;;;;4.20;2.27;;;6.00;43.50;;;;;;10274239;28;20315;-76
2023/11/25 17:31:11;;;;;;;4.77;3.23;;;6.00;43.50;;;;;;10289269;28;20230;-77
2023/11/25 17:36:14;;;;;;;3.10;2.20;;;6.00;43.50;;;;;;10288967;28;20673;-78
2023/11/25 17:41:19;;;;;;;2.53;2.00;;;5.90;43.50;;;;;;10284257;28;20660;-78
2023/11/25 17:46:22;;;;;;;1.80;1.70;;;5.90;44.00;;;;;;10282499;28;20243;-78
2023/11/25 17:51:26;;;;;;;1.80;1.70;;;5.90;43.80;;;;;;10284079;28;20228;-78
2023/11/25 17:56:33;;;;;;;2.50;1.73;;;5.90;43.50;;;;;;10284126;28;20259;-78
2023/11/25 18:01:37;;;;;;;1.57;1.47;;;5.90;44.40;;;;;;10291995;28;20244;-77
2023/11/25 18:06:40;;;;;;;2.17;1.50;;;6.00;44.00;;;;;;10290233;28;20242;-77
2023/11/25 18:11:45;;;;;;;1.87;1.43;;;6.00;43.90;;;;;;10289191;28;20270;-78
2023/11/25 18:16:48;;;;;;;2.17;1.57;;;6.00;44.00;;;;;;10297363;28;20728;-78
2023/11/25 18:21:52;;;;;;;1.70;1.60;;;6.00;43.50;;;;;;10289351;28;20314;-78
2023/11/25 18:26:56;;;;;;;2.20;1.73;;;6.00;43.70;;;;;;10291888;28;20275;-79
2023/11/25 18:31:59;;;;;;;2.23;2.03;;;5.90;44.10;;;;;;10292005;28;20798;-78
2023/11/25 18:37:03;;;;;;;2.20;2.00;;;5.90;43.90;;;;;;10288089;28;20705;-77
2023/11/25 18:42:07;;;;;;;4.57;2.83;;;5.90;44.30;;;;;;10301057;28;20319;-77
2023/11/25 18:47:11;;;;;;;2.20;2.00;;;5.90;44.40;;;;;;10289727;28;20837;-78
2023/11/25 18:52:15;;;;;;;3.83;1.93;;;5.90;44.40;;;;;;10288858;28;20235;-77
2023/11/25 18:57:19;;;;;;;1.87;1.70;;;6.00;44.40;;;;;;10289184;28;20246;-78
2023/11/25 19:02:22;;;;;;;2.03;1.87;;;5.90;44.50;;;;;;10317744;28;20234;-77
2023/11/25 19:07:26;;;;;;;2.37;1.90;;;5.90;44.30;;;;;;10300017;28;20674;-78
2023/11/25 19:12:31;;;;;;;2.10;1.93;;;5.90;44.50;;;;;;10289521;28;20351;-78
2023/11/25 19:17:36;;;;;;;2.10;1.90;;;6.00;45.00;;;;;;10287537;28;20306;-77
2023/11/25 19:22:41;;;;;;;2.40;1.93;;;6.00;44.60;;;;;;10288314;28;20599;-78
2023/11/25 19:27:46;;;;;;;1.97;1.87;;;6.00;44.70;;;;;;10287561;28;20231;-77
2023/11/25 19:32:49;;;;;;;5.33;3.83;;;6.00;44.90;;;;;;10286277;28;20257;-76
2023/11/25 19:37:53;;;;;;;2.60;2.40;;;6.00;44.80;;;;;;10286313;28;20259;-78
2023/11/25 19:42:58;;;;;;;2.70;2.33;;;6.00;44.90;;;;;;10288959;28;20235;-77
2023/11/25 19:48:02;;;;;;;2.47;2.20;;;6.00;45.20;;;;;;10288864;28;20270;-77
2023/11/25 19:53:05;;;;;;;2.30;2.07;;;6.00;44.90;;;;;;10288524;28;20317;-77
2023/11/25 19:58:10;;;;;;;1.87;1.77;;;6.00;44.90;;;;;;10279262;28;20238;-77
2023/11/25 20:03:15;;;;;;;2.20;2.00;;;6.00;45.20;;;;;;10281370;28;20254;-77
2023/11/25 20:08:19;;;;;;;1.90;1.80;;;6.00;45.10;;;;;;10288152;28;20239;-77
2023/11/25 20:13:24;;;;;;;1.90;1.80;;;6.00;44.60;;;;;;10285769;28;20314;-77
2023/11/25 20:18:27;;;;;;;2.10;2.00;;;6.00;44.70;;;;;;10282435;28;20232;-77
2023/11/25 20:23:31;;;;;;;2.13;1.93;;;6.00;44.60;;;;;;10283561;28;20239;-78
2023/11/25 20:28:35;;;;;;;1.87;1.77;;;6.00;44.80;;;;;;10283038;28;20307;-77
2023/11/25 20:33:39;;;;;;;1.97;1.87;;;6.00;44.90;;;;;;10282202;28;20724;-77
2023/11/25 20:38:42;;;;;;;2.10;2.00;;;6.00;44.80;;;;;;10283727;28;20244;-77
2023/11/25 20:43:47;;;;;;;1.90;1.80;;;6.10;45.00;;;;;;10285548;28;20334;-77
2023/11/25 20:48:50;;;;;;;1.90;1.80;;;6.10;45.20;;;;;;10285241;28;20228;-78
2023/11/25 20:53:55;;;;;;;1.80;1.70;;;6.10;45.10;;;;;;10287570;28;20247;-78
2023/11/25 20:59:00;;;;;;;1.77;1.60;;;6.10;45.40;;;;;;10283878;28;20262;-78
2023/11/25 21:04:04;;;;;;;1.70;1.60;;;6.20;45.50;;;;;;10282955;28;20263;-78
2023/11/25 21:09:08;;;;;;;0.80;0.80;;;6.20;45.10;;;;;;10285455;28;20227;-77
2023/11/25 21:14:13;;;;;;;0.60;0.60;;;6.30;44.70;;;;;;10283829;28;20267;-78
2023/11/25 21:19:16;;;;;;;0.67;0.60;;;6.20;44.30;;;;;;10281337;28;20247;-77
2023/11/25 21:24:20;;;;;;;1.53;0.50;;;6.10;43.80;;;;;;10281651;28;20265;-77
2023/11/25 21:29:24;;;;;;;0.50;0.50;;;6.00;44.00;;;;;;10280326;28;20231;-76
2023/11/25 21:34:27;;;;;;;0.40;0.40;;;5.90;44.30;;;;;;10285217;28;20251;-76
2023/11/25 21:39:31;;;;;;;0.40;0.40;;;5.70;44.00;;;;;;10287195;28;20302;-76
2023/11/25 21:44:37;;;;;;;0.77;0.77;;;5.70;44.30;;;;;;10286933;28;20257;-76
2023/11/25 21:49:40;;;;;;;0.67;0.50;;;5.70;44.40;;;;;;10279430;28;20898;-76
2023/11/25 21:54:43;;;;;;;0.67;0.67;;;5.60;44.60;;;;;;10285824;28;20318;-76
2023/11/25 21:59:48;;;;;;;0.60;0.60;;;5.50;44.50;;;;;;10299119;28;20244;-76
2023/11/25 22:04:52;;;;;;;0.90;0.90;;;5.40;44.80;;;;;;10285280;28;20338;-76
2023/11/25 22:09:55;;;;;;;0.60;0.60;;;5.40;44.90;;;;;;10285779;28;20223;-76
2023/11/25 22:15:00;;;;;;;0.80;0.80;;;5.30;44.70;;;;;;10281058;28;20236;-75
2023/11/25 22:20:03;;;;;;;0.80;0.80;;;5.30;45.00;;;;;;10284765;28;20266;-75
2023/11/25 22:25:11;;;;;;;0.90;0.90;;;5.30;45.00;;;;;;10285505;28;20729;-76
2023/11/25 22:30:17;;;;;;;1.20;1.10;;;5.30;45.00;;;;;;10287853;28;20270;-76
2023/11/25 22:35:20;;;;;;;2.43;1.30;;;5.40;45.10;;;;;;10288111;28;20242;-77
2023/11/25 22:40:23;;;;;;;1.87;1.20;;;5.40;44.90;;;;;;10288238;28;20659;-77
2023/11/25 22:45:28;;;;;;;2.23;1.03;;;5.40;44.90;;;;;;10287958;28;20232;-77
2023/11/25 22:50:31;;;;;;;1.20;1.10;;;5.40;45.10;;;;;;10287827;28;20234;-76
2023/11/25 22:55:34;;;;;;;0.97;0.97;;;5.40;44.90;;;;;;10287934;28;20231;-76
2023/11/25 23:00:49;;;;;;;1.00;1.00;;;5.40;44.80;;;;;;10287105;28;20239;-77
2023/11/25 23:05:53;;;;;;;0.90;0.90;;;5.40;44.90;;;;;;10287178;28;20235;-77
2023/11/25 23:10:56;;;;;;;1.53;1.00;;;5.40;44.70;;;;;;10287204;28;20238;-77
2023/11/25 23:16:00;;;;;;;1.27;1.03;;;5.50;44.70;;;;;;10286938;28;20228;-76
2023/11/25 23:21:04;;;;;;;0.80;0.80;;;5.50;44.80;;;;;;10282422;28;20310;-77
2023/11/25 23:26:07;;;;;;;1.17;0.97;;;5.50;44.70;;;;;;10285684;28;20228;-77
2023/11/25 23:31:12;;;;;;;2.00;1.30;;;5.50;44.70;;;;;;10286258;28;20613;-77
2023/11/25 23:36:15;;;;;;;1.37;1.20;;;5.50;44.90;;;;;;10285572;28;20266;-77
2023/11/25 23:41:18;;;;;;;1.23;1.10;;;5.40;44.70;;;;;;10284587;28;20318;-76
2023/11/25 23:46:23;;;;;;;0.70;0.70;;;5.40;44.80;;;;;;10284764;28;20628;-76
2023/11/25 23:51:26;;;;;;;1.53;1.00;;;5.30;45.00;;;;;;10284422;28;21369;-77
2023/11/25 23:56:33;;;;;;;1.10;1.10;;;5.30;44.90;;;;;;10283384;28;20236;-77
